createdAt,value
2022-09-20T00:01:10.483Z,101647.16
2022-09-20T00:03:42.745Z,101655.03
2022-09-20T00:06:12.506Z,101644.97
2022-09-20T00:08:39.473Z,101656.69
2022-09-20T00:11:09.773Z,101655.56
2022-09-20T00:13:37.648Z,101656.69
2022-09-20T00:16:09.401Z,101652.53
2022-09-20T00:18:36.877Z,101660.00
2022-09-20T00:21:04.768Z,101662.53
2022-09-20T00:23:31.529Z,101664.22
2022-09-20T00:26:04.822Z,101669.44
2022-09-20T00:28:32.397Z,101662.47
2022-09-20T00:30:58.965Z,101661.63
2022-09-20T00:33:45.820Z,101666.41
2022-09-20T00:36:12.510Z,101666.03
2022-09-20T00:38:38.999Z,101663.22
2022-09-20T00:41:07.895Z,101670.34
2022-09-20T00:43:43.538Z,101679.06
2022-09-20T00:46:26.260Z,101669.44
2022-09-20T00:48:57.539Z,101679.16
2022-09-20T00:51:31.826Z,101675.50
2022-09-20T00:54:02.209Z,101675.00
2022-09-20T00:56:35.915Z,101675.56
2022-09-20T00:59:19.937Z,101679.06
2022-09-20T01:01:52.359Z,101677.13
2022-09-20T01:04:22.714Z,101678.72
2022-09-20T01:06:53.657Z,101683.31
2022-09-20T01:09:20.445Z,101678.44
2022-09-20T01:11:48.065Z,101682.38
2022-09-20T01:14:19.093Z,101682.97
2022-09-20T01:16:45.815Z,101680.19
2022-09-20T01:19:25.430Z,101676.72
2022-09-20T01:21:53.426Z,101671.50
2022-09-20T01:24:31.176Z,101673.06
2022-09-20T01:27:21.472Z,101688.88
2022-09-20T01:30:07.437Z,101694.41
2022-09-20T01:32:50.729Z,101695.03
2022-09-20T01:35:21.390Z,101692.03
2022-09-20T01:38:09.329Z,101698.88
2022-09-20T01:41:06.838Z,101703.31
2022-09-20T01:43:46.045Z,101700.88
2022-09-20T01:46:32.413Z,101703.16
2022-09-20T01:49:20.580Z,101706.63
2022-09-20T01:52:38.155Z,101708.97
2022-09-20T01:55:43.605Z,101709.16
2022-09-20T01:58:39.360Z,101707.09
2022-09-20T02:01:14.896Z,101700.19
2022-09-20T02:03:53.585Z,101700.06
2022-09-20T02:06:46.023Z,101709.41
2022-09-20T02:09:12.438Z,101719.13
2022-09-20T02:12:02.556Z,101707.91
2022-09-20T02:14:40.515Z,101705.13
2022-09-20T02:17:17.960Z,101712.50
2022-09-20T02:20:20.470Z,101711.44
2022-09-20T02:23:24.170Z,101723.78
2022-09-20T02:26:36.737Z,101728.56
2022-09-20T02:29:16.166Z,101728.09
2022-09-20T02:32:07.768Z,101725.19
2022-09-20T02:35:05.601Z,101727.06
2022-09-20T02:37:35.026Z,101734.53
2022-09-20T02:40:33.313Z,101735.75
2022-09-20T02:43:29.668Z,101733.50
2022-09-20T02:46:22.670Z,101736.88
2022-09-20T02:49:00.574Z,101742.13
2022-09-20T02:51:41.598Z,101750.91
2022-09-20T02:54:35.428Z,101746.16
2022-09-20T02:57:15.669Z,101750.53
2022-09-20T02:59:50.359Z,101751.94
2022-09-20T03:02:27.168Z,101746.91
2022-09-20T03:05:15.421Z,101751.47
2022-09-20T03:08:23.180Z,101751.38
2022-09-20T03:11:11.699Z,101749.00
2022-09-20T03:13:50.561Z,101749.75
2022-09-20T03:16:30.217Z,101748.91
2022-09-20T03:19:15.453Z,101751.81
2022-09-20T03:21:53.610Z,101750.03
2022-09-20T03:24:39.887Z,101750.09
2022-09-20T03:27:37.716Z,101754.19
2022-09-20T03:30:16.913Z,101756.31
2022-09-20T03:33:08.412Z,101765.84
2022-09-20T03:36:08.676Z,101758.72
2022-09-20T03:38:37.794Z,101766.25
2022-09-20T03:41:35.623Z,101764.75
2022-09-20T03:44:39.995Z,101762.59
2022-09-20T03:47:19.268Z,101765.00
2022-09-20T03:50:15.941Z,101761.63
2022-09-20T03:53:16.921Z,101765.59
2022-09-20T03:56:21.190Z,101763.41
2022-09-20T03:59:25.557Z,101760.19
2022-09-20T04:02:20.013Z,101763.41
2022-09-20T04:05:00.975Z,101768.34
2022-09-20T04:07:39.553Z,101770.13
2022-09-20T04:10:25.779Z,101771.16
2022-09-20T04:13:21.789Z,101762.69
2022-09-20T04:16:05.104Z,101759.81
2022-09-20T04:18:35.701Z,101770.53
2022-09-20T04:21:08.649Z,101768.84
2022-09-20T04:23:39.481Z,101769.94
2022-09-20T04:26:06.156Z,101770.41
2022-09-20T04:28:43.184Z,101769.78
2022-09-20T04:31:20.872Z,101773.41
2022-09-20T04:33:51.911Z,101782.91
2022-09-20T04:36:35.004Z,101787.13
2022-09-20T04:39:26.097Z,101791.34
2022-09-20T04:42:22.380Z,101785.28
2022-09-20T04:44:52.793Z,101790.38
2022-09-20T04:47:46.357Z,101798.19
2022-09-20T04:50:49.974Z,101792.78
2022-09-20T04:53:29.235Z,101798.53
2022-09-20T04:56:01.949Z,101798.53
2022-09-20T04:58:47.101Z,101806.31
2022-09-20T05:01:17.187Z,101805.56
2022-09-20T05:04:22.782Z,101817.59
2022-09-20T05:07:36.721Z,101816.84
2022-09-20T05:10:45.057Z,101817.19
2022-09-20T05:13:20.047Z,101820.56
2022-09-20T05:16:26.257Z,101818.50
2022-09-20T05:19:26.622Z,101823.56
2022-09-20T05:22:00.087Z,101823.19
2022-09-20T05:24:52.832Z,101836.53
2022-09-20T05:27:44.432Z,101839.84
2022-09-20T05:30:23.020Z,101840.56
2022-09-20T05:33:18.310Z,101838.19
2022-09-20T05:35:48.079Z,101837.50
2022-09-20T05:38:33.448Z,101839.88
2022-09-20T05:41:30.979Z,101841.41
2022-09-20T05:44:50.958Z,101844.09
2022-09-20T05:47:24.970Z,101845.09
2022-09-20T05:50:10.898Z,101847.91
2022-09-20T05:53:07.509Z,101849.19
2022-09-20T05:56:12.976Z,101853.78
2022-09-20T05:58:42.412Z,101850.44
2022-09-20T06:01:15.270Z,101849.03
2022-09-20T06:04:01.292Z,101854.75
2022-09-20T06:06:52.408Z,101858.88
2022-09-20T06:09:45.714Z,101857.03
2022-09-20T06:12:35.724Z,101852.22
2022-09-20T06:15:24.230Z,101852.50
2022-09-20T06:18:13.948Z,101863.16
2022-09-20T06:21:05.255Z,101861.38
2022-09-20T06:23:32.221Z,101862.16
2022-09-20T06:26:07.977Z,101867.47
2022-09-20T06:28:48.742Z,101873.06
2022-09-20T06:31:18.082Z,101869.56
2022-09-20T06:33:56.934Z,101873.94
2022-09-20T06:36:48.481Z,101882.44
2022-09-20T06:40:06.018Z,101882.53
2022-09-20T06:42:32.802Z,101890.44
2022-09-20T06:44:59.352Z,101886.84
2022-09-20T06:47:27.287Z,101886.38
2022-09-20T06:49:53.940Z,101892.78
2022-09-20T06:52:22.891Z,101897.78
2022-09-20T06:54:55.226Z,101886.25
2022-09-20T06:57:36.544Z,101891.00
2022-09-20T07:00:04.086Z,101897.19
2022-09-20T07:02:30.670Z,101893.75
2022-09-20T07:04:58.101Z,101899.59
2022-09-20T07:07:25.508Z,101906.53
2022-09-20T07:09:52.026Z,101894.88
2022-09-20T07:12:19.480Z,101900.59
2022-09-20T07:14:45.970Z,101899.78
2022-09-20T07:17:13.319Z,101909.09
2022-09-20T07:19:40.151Z,101905.97
2022-09-20T07:22:06.710Z,101906.63
2022-09-20T07:24:33.196Z,101912.13
2022-09-20T07:27:02.231Z,101920.75
2022-09-20T07:29:29.698Z,101916.56
2022-09-20T07:31:57.389Z,101917.44
2022-09-20T07:34:24.390Z,101926.88
2022-09-20T07:36:51.346Z,101926.44
2022-09-20T07:39:18.585Z,101926.25
2022-09-20T07:41:51.263Z,101935.06
2022-09-20T07:44:21.535Z,101930.00
2022-09-20T07:46:51.282Z,101930.03
2022-09-20T07:49:18.157Z,101933.38
2022-09-20T07:51:44.737Z,101932.34
2022-09-20T07:54:12.088Z,101939.25
2022-09-20T07:56:38.748Z,101939.88
2022-09-20T07:59:05.866Z,101939.50
2022-09-20T08:01:32.534Z,101932.56
2022-09-20T08:03:59.624Z,101938.84
2022-09-20T08:06:26.862Z,101939.25
2022-09-20T08:08:53.420Z,101948.50
2022-09-20T08:11:28.787Z,101944.28
2022-09-20T08:14:06.155Z,101947.66
2022-09-20T08:16:41.651Z,101946.34
2022-09-20T08:19:08.851Z,101959.31
2022-09-20T08:21:38.039Z,101962.59
2022-09-20T08:24:04.926Z,101958.19
2022-09-20T08:26:31.788Z,101969.09
2022-09-20T08:28:59.826Z,101968.81
2022-09-20T08:31:31.475Z,101970.19
2022-09-20T08:33:59.142Z,101969.69
2022-09-20T08:36:26.178Z,101968.16
2022-09-20T08:41:51.353Z,101965.94
2022-09-20T08:44:45.461Z,101963.78
2022-09-20T08:47:25.756Z,101958.59
2022-09-20T08:49:57.729Z,101971.69
2022-09-20T08:52:37.228Z,101976.44
2022-09-20T08:55:22.970Z,101977.63
2022-09-20T08:57:53.149Z,101972.53
2022-09-20T09:00:32.692Z,101979.13
2022-09-20T09:03:04.547Z,101976.94
2022-09-20T09:05:43.384Z,101988.38
2022-09-20T09:08:16.554Z,101979.50
2022-09-20T09:10:54.275Z,101984.75
2022-09-20T09:13:37.807Z,101991.63
2022-09-20T09:16:13.141Z,101983.38
2022-09-20T09:18:42.121Z,101983.72
2022-09-20T09:21:17.096Z,101981.34
2022-09-20T09:24:16.399Z,101987.38
2022-09-20T09:26:43.583Z,101991.78
2022-09-20T09:29:15.560Z,101990.84
2022-09-20T09:31:43.934Z,101999.91
2022-09-20T09:34:26.256Z,101991.91
2022-09-20T09:36:55.411Z,101993.31
2022-09-20T09:39:31.106Z,101993.06
2022-09-20T09:42:01.366Z,102003.00
2022-09-20T09:44:30.070Z,101999.59
2022-09-20T09:46:57.478Z,101999.31
2022-09-20T09:49:34.162Z,101997.38
2022-09-20T09:52:14.575Z,102005.69
2022-09-20T09:54:50.969Z,101999.81
2022-09-20T09:57:52.039Z,102008.88
2022-09-20T10:00:27.372Z,102008.28
2022-09-20T10:03:01.839Z,102004.22
2022-09-20T10:05:32.993Z,101997.50
2022-09-20T10:08:11.304Z,102009.75
2022-09-20T10:10:58.078Z,101997.38
2022-09-20T10:13:44.159Z,102004.50
2022-09-20T10:16:32.338Z,102006.16
2022-09-20T10:19:24.890Z,102004.63
2022-09-20T10:22:16.143Z,102006.44
2022-09-20T10:25:01.707Z,102000.22
2022-09-20T10:27:39.891Z,102004.50
2022-09-20T10:30:17.039Z,101999.59
2022-09-20T10:32:46.384Z,102008.16
2022-09-20T10:35:34.704Z,101998.28
2022-09-20T10:38:14.178Z,102002.00
2022-09-20T10:41:24.587Z,102014.66
2022-09-20T10:44:08.723Z,102005.97
2022-09-20T10:46:43.313Z,102009.56
2022-09-20T10:49:42.038Z,102004.97
2022-09-20T10:52:37.646Z,102005.34
2022-09-20T10:55:39.268Z,102020.03
2022-09-20T10:58:43.606Z,102015.13
2022-09-20T11:01:24.224Z,102014.94
2022-09-20T11:04:24.585Z,102015.91
2022-09-20T11:07:15.624Z,102024.13
2022-09-20T11:09:55.197Z,102020.03
2022-09-20T11:12:50.369Z,102021.34
2022-09-20T11:15:35.488Z,102030.53
2022-09-20T11:18:24.549Z,102023.47
2022-09-20T11:21:00.499Z,102022.88
2022-09-20T11:24:12.943Z,102029.72
2022-09-20T11:26:50.513Z,102032.81
2022-09-20T11:29:54.650Z,102024.53
2022-09-20T11:32:26.140Z,102030.94
2022-09-20T11:35:01.945Z,102029.06
2022-09-20T11:37:35.367Z,102026.56
2022-09-20T11:40:16.050Z,102029.81
2022-09-20T11:42:43.790Z,102020.53
2022-09-20T11:45:13.363Z,102025.66
2022-09-20T11:48:00.036Z,102034.31
2022-09-20T11:50:58.122Z,102021.28
2022-09-20T11:53:49.634Z,102021.78
2022-09-20T11:56:20.965Z,102020.97
2022-09-20T11:58:50.771Z,102023.00
2022-09-20T12:01:28.681Z,102026.84
2022-09-20T12:04:32.507Z,102030.03
2022-09-20T12:07:02.387Z,102037.09
2022-09-20T12:09:41.108Z,102029.66
2022-09-20T12:12:27.774Z,102034.22
2022-09-20T12:14:56.837Z,102036.97
2022-09-20T12:17:48.388Z,102037.09
2022-09-20T12:20:33.629Z,102034.97
2022-09-20T12:23:38.237Z,102043.25
2022-09-20T12:26:14.067Z,102038.72
2022-09-20T12:28:43.716Z,102037.38
2022-09-20T12:31:22.521Z,102045.66
2022-09-20T12:34:01.166Z,102037.88
2022-09-20T12:36:36.271Z,102040.97
2022-09-20T12:39:11.997Z,102038.91
2022-09-20T12:42:04.604Z,102035.66
2022-09-20T12:44:49.555Z,102038.28
2022-09-20T12:47:20.732Z,102033.69
2022-09-20T12:50:05.645Z,102038.13
2022-09-20T12:52:50.557Z,102031.53
2022-09-20T12:55:29.935Z,102035.50
2022-09-20T12:57:58.955Z,102045.66
2022-09-20T13:00:40.656Z,102041.22
2022-09-20T13:03:21.646Z,102038.16
2022-09-20T13:06:04.867Z,102037.09
2022-09-20T13:08:36.676Z,102040.25
2022-09-20T13:11:06.425Z,102039.31
2022-09-20T13:13:54.750Z,102048.38
2022-09-20T13:16:52.157Z,102042.84
2022-09-20T13:19:22.993Z,102040.66
2022-09-20T13:22:00.789Z,102047.50
2022-09-20T13:24:37.105Z,102041.50
2022-09-20T13:27:09.750Z,102047.69
2022-09-20T13:29:42.829Z,102049.78
2022-09-20T13:32:26.409Z,102053.97
2022-09-20T13:35:06.918Z,102049.59
2022-09-20T13:37:35.029Z,102047.53
2022-09-20T13:40:03.573Z,102045.94
2022-09-20T13:42:35.741Z,102047.13
2022-09-20T13:45:03.812Z,102042.31
2022-09-20T13:47:32.457Z,102053.66
2022-09-20T13:50:15.135Z,102047.66
2022-09-20T13:52:52.781Z,102056.72
2022-09-20T13:55:33.182Z,102053.34
2022-09-20T13:58:09.705Z,102057.66
2022-09-20T14:00:38.384Z,102054.94
2022-09-20T14:03:05.139Z,102057.59
2022-09-20T14:05:31.898Z,102061.53
2022-09-20T14:08:00.706Z,102058.19
2022-09-20T14:10:31.109Z,102056.44
2022-09-20T14:13:02.294Z,102058.56
2022-09-20T14:15:34.557Z,102060.00
2022-09-20T14:18:04.445Z,102050.16
2022-09-20T14:20:32.071Z,102053.38
2022-09-20T14:22:59.426Z,102058.06
2022-09-20T14:25:27.557Z,102060.63
2022-09-20T14:28:19.795Z,102064.44
2022-09-20T14:30:48.432Z,102065.78
2022-09-20T14:33:19.457Z,102073.41
2022-09-20T14:35:51.885Z,102072.28
2022-09-20T14:38:26.535Z,102063.81
2022-09-20T14:40:53.299Z,102071.78
2022-09-20T14:43:38.023Z,102067.09
2022-09-20T14:46:09.963Z,102069.91
2022-09-20T14:48:41.273Z,102067.75
2022-09-20T14:51:17.438Z,102070.13
2022-09-20T14:53:45.654Z,102068.97
2022-09-20T14:56:15.032Z,102070.44
2022-09-20T14:59:05.687Z,102077.22
2022-09-20T15:01:33.803Z,102068.84
2022-09-20T15:04:07.721Z,102070.84
2022-09-20T15:06:40.156Z,102074.59
2022-09-20T15:09:06.924Z,102074.78
2022-09-20T15:11:33.402Z,102076.09
2022-09-20T15:13:59.892Z,102090.59
2022-09-20T15:16:28.278Z,102081.94
2022-09-20T15:18:54.984Z,102081.94
2022-09-20T15:21:21.864Z,102082.44
2022-09-20T15:23:48.624Z,102076.97
2022-09-20T15:26:16.442Z,102075.84
2022-09-20T15:28:42.932Z,102077.75
2022-09-20T15:31:10.259Z,102083.03
2022-09-20T15:33:36.783Z,102076.81
2022-09-20T15:36:03.973Z,102082.97
2022-09-20T15:38:30.819Z,102087.72
2022-09-20T15:41:00.884Z,102084.72
2022-09-20T15:43:31.065Z,102090.91
2022-09-20T15:46:17.912Z,102094.00
2022-09-20T15:48:44.433Z,102097.16
2022-09-20T15:51:12.230Z,102090.16
2022-09-20T15:54:08.075Z,102084.31
2022-09-20T15:56:36.946Z,102095.19
2022-09-20T15:59:08.902Z,102092.00
2022-09-20T16:01:41.176Z,102096.50
2022-09-20T16:04:12.413Z,102093.53
2022-09-20T16:06:41.377Z,102094.31
2022-09-20T16:09:08.422Z,102095.69
2022-09-20T16:11:36.548Z,102100.00
2022-09-20T16:14:03.443Z,102109.75
2022-09-20T16:16:37.389Z,102106.00
2022-09-20T16:19:20.174Z,102107.91
2022-09-20T16:21:55.080Z,102109.19
2022-09-20T16:24:26.098Z,102112.09
2022-09-20T16:26:53.385Z,102120.66
2022-09-20T16:29:22.061Z,102121.78
2022-09-20T16:31:50.136Z,102125.63
2022-09-20T16:34:19.048Z,102126.94
2022-09-20T16:36:49.568Z,102121.75
2022-09-20T16:39:18.152Z,102124.50
2022-09-20T16:41:48.964Z,102128.94
2022-09-20T16:44:15.797Z,102127.00
2022-09-20T16:46:42.245Z,102131.91
2022-09-20T16:49:12.487Z,102132.66
2022-09-20T16:51:43.115Z,102128.53
2022-09-20T16:54:12.392Z,102136.47
2022-09-20T16:56:42.116Z,102139.66
2022-09-20T16:59:09.262Z,102140.25
2022-09-20T17:01:39.327Z,102137.59
2022-09-20T17:04:06.835Z,102144.03
2022-09-20T17:06:35.428Z,102146.16
2022-09-20T17:09:02.300Z,102147.84
2022-09-20T17:11:31.511Z,102150.38
2022-09-20T17:13:58.407Z,102157.34
2022-09-20T17:16:26.359Z,102156.53
2022-09-20T17:18:55.400Z,102163.50
2022-09-20T17:21:22.598Z,102163.94
2022-09-20T17:23:55.048Z,102165.66
2022-09-20T17:26:27.382Z,102169.84
2022-09-20T17:28:59.062Z,102166.50
2022-09-20T17:31:33.655Z,102169.47
2022-09-20T17:34:02.313Z,102174.88
2022-09-20T17:36:31.997Z,102171.06
2022-09-20T17:39:04.175Z,102177.53
2022-09-20T17:41:32.893Z,102176.25
2022-09-20T17:44:02.637Z,102177.63
2022-09-20T17:46:31.804Z,102188.72
2022-09-20T17:49:07.554Z,102185.72
2022-09-20T17:51:36.888Z,102185.91
2022-09-20T17:54:04.283Z,102193.66
2022-09-20T17:56:31.362Z,102198.50
2022-09-20T17:59:00.144Z,102203.66
2022-09-20T18:01:28.667Z,102202.97
2022-09-20T18:03:58.394Z,102206.25
2022-09-20T18:06:29.526Z,102209.31
2022-09-20T18:08:58.872Z,102212.44
2022-09-20T18:11:34.400Z,102218.69
2022-09-20T18:14:02.340Z,102216.13
2022-09-20T18:16:30.846Z,102218.97
2022-09-20T18:18:59.473Z,102221.44
2022-09-20T18:21:28.776Z,102225.59
2022-09-20T18:23:56.052Z,102221.78
2022-09-20T18:26:25.544Z,102235.50
2022-09-20T18:28:52.191Z,102230.66
2022-09-20T18:31:19.140Z,102234.34
2022-09-20T18:33:45.769Z,102235.31
2022-09-20T18:36:12.280Z,102237.78
2022-09-20T18:38:39.350Z,102241.06
2022-09-20T18:41:05.885Z,102246.84
2022-09-20T18:43:33.356Z,102242.97
2022-09-20T18:46:00.481Z,102245.19
2022-09-20T18:48:33.246Z,102251.44
2022-09-20T18:51:02.408Z,102255.19
2022-09-20T18:53:30.916Z,102251.59
2022-09-20T18:56:06.383Z,102252.06
2022-09-20T18:58:33.298Z,102251.22
2022-09-20T19:01:21.536Z,102250.75
2022-09-20T19:04:07.178Z,102259.94
2022-09-20T19:07:14.311Z,102260.63
2022-09-20T19:09:52.632Z,102264.38
2022-09-20T19:12:32.277Z,102267.09
2022-09-20T19:15:14.596Z,102268.78
2022-09-20T19:17:56.234Z,102269.53
2022-09-20T19:20:43.162Z,102262.88
2022-09-20T19:23:53.993Z,102276.38
2022-09-20T19:26:27.814Z,102268.81
2022-09-20T19:29:00.277Z,102271.59
2022-09-20T19:31:32.687Z,102281.84
2022-09-20T19:34:01.934Z,102277.91
2022-09-20T19:36:56.337Z,102283.22
2022-09-20T19:39:44.753Z,102290.75
2022-09-20T19:42:27.912Z,102284.44
2022-09-20T19:45:15.552Z,102287.72
2022-09-20T19:47:50.391Z,102290.31
2022-09-20T19:50:42.482Z,102286.00
2022-09-20T19:53:10.420Z,102293.69
2022-09-20T19:55:37.970Z,102298.47
2022-09-20T19:58:05.093Z,102300.03
2022-09-20T20:00:32.227Z,102305.66
2022-09-20T20:02:59.120Z,102303.13
2022-09-20T20:05:27.657Z,102304.34
2022-09-20T20:08:13.215Z,102311.81
2022-09-20T20:10:45.806Z,102313.03
2022-09-20T20:13:46.517Z,102318.84
2022-09-20T20:16:16.607Z,102312.50
2022-09-20T20:19:20.046Z,102311.47
2022-09-20T20:22:08.751Z,102305.63
2022-09-20T20:24:51.889Z,102315.38
2022-09-20T20:27:19.337Z,102318.09
2022-09-20T20:29:46.527Z,102315.38
2022-09-20T20:32:13.424Z,102324.97
2022-09-20T20:34:40.199Z,102323.34
2022-09-20T20:37:07.926Z,102317.53
2022-09-20T20:39:34.925Z,102328.13
2022-09-20T20:42:03.119Z,102337.88
2022-09-20T20:44:31.649Z,102337.88
2022-09-20T20:46:58.449Z,102334.38
2022-09-20T20:49:24.926Z,102344.56
2022-09-20T20:51:51.774Z,102344.19
2022-09-20T20:54:18.475Z,102343.97
2022-09-20T20:56:46.051Z,102352.63
2022-09-20T20:59:13.982Z,102345.88
2022-09-20T21:01:46.020Z,102355.41
2022-09-20T21:04:15.318Z,102352.16
2022-09-20T21:06:42.327Z,102348.63
2022-09-20T21:09:10.626Z,102351.66
2022-09-20T21:11:40.377Z,102344.69
2022-09-20T21:14:07.551Z,102351.91
2022-09-20T21:16:36.671Z,102356.00
2022-09-20T21:19:05.781Z,102354.63
2022-09-20T21:21:35.228Z,102356.47
2022-09-20T21:24:04.446Z,102352.25
2022-09-20T21:26:32.804Z,102358.03
2022-09-20T21:29:01.830Z,102356.09
2022-09-20T21:31:34.524Z,102359.00
2022-09-20T21:34:01.792Z,102360.25
2022-09-20T21:36:30.091Z,102352.63
2022-09-20T21:38:57.452Z,102362.13
2022-09-20T21:41:32.871Z,102365.38
2022-09-20T21:44:01.334Z,102363.38
2022-09-20T21:46:48.429Z,102366.09
2022-09-20T21:49:15.202Z,102361.34
2022-09-20T21:51:43.291Z,102371.19
2022-09-20T21:54:11.099Z,102368.63
2022-09-20T21:56:39.801Z,102369.47
2022-09-20T21:59:07.629Z,102367.97
2022-09-20T22:01:37.070Z,102367.59
2022-09-20T22:04:09.581Z,102370.50
2022-09-20T22:06:42.291Z,102373.06
2022-09-20T22:09:11.685Z,102379.50
2022-09-20T22:11:46.605Z,102382.38
2022-09-20T22:14:14.871Z,102377.47
2022-09-20T22:16:43.502Z,102378.34
2022-09-20T22:19:12.980Z,102380.22
2022-09-20T22:21:41.845Z,102382.94
2022-09-20T22:24:10.496Z,102381.38
2022-09-20T22:26:44.275Z,102377.84
2022-09-20T22:29:10.915Z,102381.59
2022-09-20T22:31:44.726Z,102376.66
2022-09-20T22:34:14.246Z,102386.81
2022-09-20T22:36:41.780Z,102386.31
2022-09-20T22:39:10.293Z,102386.97
2022-09-20T22:41:38.343Z,102386.97
2022-09-20T22:44:05.883Z,102380.38
2022-09-20T22:46:33.578Z,102382.94
2022-09-20T22:49:00.667Z,102386.31
2022-09-20T22:51:30.932Z,102390.22
2022-09-20T22:53:58.199Z,102387.50
2022-09-20T22:56:29.587Z,102390.69
2022-09-20T22:59:03.108Z,102390.88
2022-09-20T23:01:33.177Z,102402.06
2022-09-20T23:04:03.269Z,102401.03
2022-09-20T23:06:32.468Z,102399.53
2022-09-20T23:09:01.431Z,102392.06
2022-09-20T23:11:29.168Z,102397.97
2022-09-20T23:14:00.805Z,102396.28
2022-09-20T23:16:30.306Z,102411.19
2022-09-20T23:18:58.736Z,102410.69
2022-09-20T23:21:25.885Z,102409.16
2022-09-20T23:23:54.763Z,102409.69
2022-09-20T23:26:21.998Z,102409.16
2022-09-20T23:28:57.461Z,102414.25
2022-09-20T23:31:24.291Z,102416.81
2022-09-20T23:33:52.445Z,102411.88
2022-09-20T23:36:19.801Z,102421.03
2022-09-20T23:38:47.803Z,102405.75
2022-09-20T23:41:16.863Z,102408.47
2022-09-20T23:43:43.655Z,102412.19
2022-09-20T23:46:12.077Z,102409.47
2022-09-20T23:48:41.541Z,102414.53
2022-09-20T23:51:10.250Z,102420.47
2022-09-20T23:53:37.365Z,102413.84
2022-09-20T23:56:06.149Z,102420.28
2022-09-20T23:58:35.962Z,102415.19
